sensor_id;sensor_type;location;lat;lon;timestamp;pressure;altitude;pressure_sealevel;temperature;humidity
24788;BME280;12883;52.662;5.196;2022-07-24T00:00:24;101879.25;;;20.00;100.00
24788;BME280;12883;52.662;5.196;2022-07-24T00:02:49;101873.63;;;19.90;100.00
24788;BME280;12883;52.662;5.196;2022-07-24T00:05:14;101881.38;;;19.98;100.00
24788;BME280;12883;52.662;5.196;2022-07-24T00:07:40;101870.94;;;20.02;100.00
24788;BME280;12883;52.662;5.196;2022-07-24T00:10:06;101882.41;;;19.97;100.00
24788;BME280;12883;52.662;5.196;2022-07-24T00:12:32;101866.00;;;19.99;100.00
24788;BME280;12883;52.662;5.196;2022-07-24T00:14:58;101861.81;;;19.91;100.00
24788;BME280;12883;52.662;5.196;2022-07-24T00:17:23;101876.00;;;19.98;100.00
24788;BME280;12883;52.662;5.196;2022-07-24T00:19:49;101875.16;;;19.98;100.00
24788;BME280;12883;52.662;5.196;2022-07-24T00:22:14;101857.00;;;19.93;100.00
24788;BME280;12883;52.662;5.196;2022-07-24T00:24:39;101868.47;;;20.00;100.00
24788;BME280;12883;52.662;5.196;2022-07-24T00:27:05;101865.22;;;19.98;100.00
24788;BME280;12883;52.662;5.196;2022-07-24T00:29:30;101868.34;;;19.95;100.00
24788;BME280;12883;52.662;5.196;2022-07-24T00:31:56;101873.75;;;19.95;100.00
24788;BME280;12883;52.662;5.196;2022-07-24T00:34:21;101867.66;;;19.88;100.00
24788;BME280;12883;52.662;5.196;2022-07-24T00:36:46;101861.34;;;19.83;100.00
24788;BME280;12883;52.662;5.196;2022-07-24T00:39:12;101862.50;;;19.87;100.00
24788;BME280;12883;52.662;5.196;2022-07-24T00:41:38;101857.59;;;19.84;100.00
24788;BME280;12883;52.662;5.196;2022-07-24T00:44:10;101852.53;;;19.87;100.00
24788;BME280;12883;52.662;5.196;2022-07-24T00:46:38;101856.53;;;19.85;100.00
24788;BME280;12883;52.662;5.196;2022-07-24T00:49:06;101858.88;;;19.81;100.00
24788;BME280;12883;52.662;5.196;2022-07-24T00:51:33;101854.31;;;19.82;100.00
24788;BME280;12883;52.662;5.196;2022-07-24T00:54:03;101837.31;;;19.70;100.00
24788;BME280;12883;52.662;5.196;2022-07-24T00:56:29;101841.41;;;19.72;100.00
24788;BME280;12883;52.662;5.196;2022-07-24T00:58:55;101840.38;;;19.73;100.00
24788;BME280;12883;52.662;5.196;2022-07-24T01:01:20;101847.50;;;19.79;100.00
24788;BME280;12883;52.662;5.196;2022-07-24T01:03:45;101846.31;;;19.75;100.00
24788;BME280;12883;52.662;5.196;2022-07-24T01:06:12;101844.81;;;19.79;100.00
24788;BME280;12883;52.662;5.196;2022-07-24T01:08:37;101847.97;;;19.76;100.00
24788;BME280;12883;52.662;5.196;2022-07-24T01:11:04;101847.38;;;19.74;100.00
24788;BME280;12883;52.662;5.196;2022-07-24T01:13:30;101850.78;;;19.81;100.00
24788;BME280;12883;52.662;5.196;2022-07-24T01:15:57;101845.88;;;19.78;100.00
24788;BME280;12883;52.662;5.196;2022-07-24T01:18:23;101850.66;;;19.76;100.00
24788;BME280;12883;52.662;5.196;2022-07-24T01:20:49;101853.97;;;19.78;100.00
24788;BME280;12883;52.662;5.196;2022-07-24T01:23:15;101850.22;;;19.79;100.00
24788;BME280;12883;52.662;5.196;2022-07-24T01:25:41;101853.84;;;19.85;100.00
24788;BME280;12883;52.662;5.196;2022-07-24T01:28:07;101848.78;;;19.88;100.00
24788;BME280;12883;52.662;5.196;2022-07-24T01:30:32;101843.97;;;19.90;100.00
24788;BME280;12883;52.662;5.196;2022-07-24T01:32:58;101849.97;;;19.92;100.00
24788;BME280;12883;52.662;5.196;2022-07-24T01:35:24;101852.19;;;19.95;100.00
24788;BME280;12883;52.662;5.196;2022-07-24T01:37:51;101843.03;;;19.96;100.00
24788;BME280;12883;52.662;5.196;2022-07-24T01:40:16;101847.16;;;19.87;100.00
24788;BME280;12883;52.662;5.196;2022-07-24T01:42:42;101843.06;;;19.85;100.00
24788;BME280;12883;52.662;5.196;2022-07-24T01:45:08;101843.19;;;19.78;100.00
24788;BME280;12883;52.662;5.196;2022-07-24T01:47:34;101838.84;;;19.77;100.00
24788;BME280;12883;52.662;5.196;2022-07-24T01:49:59;101845.88;;;19.78;100.00
24788;BME280;12883;52.662;5.196;2022-07-24T01:52:24;101843.41;;;19.77;100.00
24788;BME280;12883;52.662;5.196;2022-07-24T01:54:51;101836.03;;;19.72;100.00
24788;BME280;12883;52.662;5.196;2022-07-24T01:57:17;101839.31;;;19.74;100.00
24788;BME280;12883;52.662;5.196;2022-07-24T01:59:42;101803.00;;;19.54;100.00
24788;BME280;12883;52.662;5.196;2022-07-24T02:02:08;101833.22;;;19.67;100.00
24788;BME280;12883;52.662;5.196;2022-07-24T02:04:33;101841.41;;;19.61;100.00
24788;BME280;12883;52.662;5.196;2022-07-24T02:06:59;101832.50;;;19.60;100.00
24788;BME280;12883;52.662;5.196;2022-07-24T02:09:24;101820.91;;;19.48;100.00
24788;BME280;12883;52.662;5.196;2022-07-24T02:11:50;101828.06;;;19.54;100.00
24788;BME280;12883;52.662;5.196;2022-07-24T02:14:15;101841.63;;;19.48;100.00
24788;BME280;12883;52.662;5.196;2022-07-24T02:16:41;101828.41;;;19.46;100.00
24788;BME280;12883;52.662;5.196;2022-07-24T02:19:06;101827.56;;;19.46;100.00
24788;BME280;12883;52.662;5.196;2022-07-24T02:21:31;101825.13;;;19.44;100.00
24788;BME280;12883;52.662;5.196;2022-07-24T02:23:57;101822.66;;;19.43;100.00
24788;BME280;12883;52.662;5.196;2022-07-24T02:26:22;101815.28;;;19.38;100.00
24788;BME280;12883;52.662;5.196;2022-07-24T02:28:47;101819.03;;;19.37;100.00
24788;BME280;12883;52.662;5.196;2022-07-24T02:31:13;101812.22;;;19.35;100.00
24788;BME280;12883;52.662;5.196;2022-07-24T02:33:40;101809.53;;;19.35;100.00
24788;BME280;12883;52.662;5.196;2022-07-24T02:36:05;101808.72;;;19.34;100.00
24788;BME280;12883;52.662;5.196;2022-07-24T02:38:31;101804.38;;;19.33;100.00
24788;BME280;12883;52.662;5.196;2022-07-24T02:40:56;101812.94;;;19.30;100.00
24788;BME280;12883;52.662;5.196;2022-07-24T02:43:22;101797.22;;;19.27;100.00
24788;BME280;12883;52.662;5.196;2022-07-24T02:45:47;101799.91;;;19.27;100.00
24788;BME280;12883;52.662;5.196;2022-07-24T02:48:12;101789.63;;;19.24;100.00
24788;BME280;12883;52.662;5.196;2022-07-24T02:50:38;101797.34;;;19.21;100.00
24788;BME280;12883;52.662;5.196;2022-07-24T02:53:05;101790.31;;;19.20;100.00
24788;BME280;12883;52.662;5.196;2022-07-24T02:55:30;101791.13;;;19.20;100.00
24788;BME280;12883;52.662;5.196;2022-07-24T02:57:56;101787.81;;;19.18;100.00
24788;BME280;12883;52.662;5.196;2022-07-24T03:00:21;101776.22;;;19.18;100.00
24788;BME280;12883;52.662;5.196;2022-07-24T03:02:47;101771.31;;;19.15;100.00
24788;BME280;12883;52.662;5.196;2022-07-24T03:05:12;101782.91;;;19.15;100.00
24788;BME280;12883;52.662;5.196;2022-07-24T03:07:39;101782.44;;;19.18;100.00
24788;BME280;12883;52.662;5.196;2022-07-24T03:10:06;101776.47;;;19.16;100.00
24788;BME280;12883;52.662;5.196;2022-07-24T03:12:32;101772.16;;;19.15;100.00
24788;BME280;12883;52.662;5.196;2022-07-24T03:14:58;101772.16;;;19.15;100.00
24788;BME280;12883;52.662;5.196;2022-07-24T03:17:23;101770.03;;;19.17;100.00
24788;BME280;12883;52.662;5.196;2022-07-24T03:19:49;101777.06;;;19.18;100.00
24788;BME280;12883;52.662;5.196;2022-07-24T03:22:14;101779.41;;;19.15;100.00
24788;BME280;12883;52.662;5.196;2022-07-24T03:24:39;101772.72;;;19.06;100.00
24788;BME280;12883;52.662;5.196;2022-07-24T03:27:05;101769.53;;;18.97;100.00
24788;BME280;12883;52.662;5.196;2022-07-24T03:29:30;101764.88;;;19.04;100.00
24788;BME280;12883;52.662;5.196;2022-07-24T03:31:56;101776.09;;;19.01;100.00
24788;BME280;12883;52.662;5.196;2022-07-24T03:34:21;101769.53;;;18.97;100.00
24788;BME280;12883;52.662;5.196;2022-07-24T03:36:47;101766.38;;;19.00;100.00
24788;BME280;12883;52.662;5.196;2022-07-24T03:39:12;101756.09;;;18.97;100.00
24788;BME280;12883;52.662;5.196;2022-07-24T03:41:37;101761.09;;;18.94;100.00
24788;BME280;12883;52.662;5.196;2022-07-24T03:44:03;101757.72;;;18.98;100.00
24788;BME280;12883;52.662;5.196;2022-07-24T03:46:29;101758.78;;;18.97;100.00
24788;BME280;12883;52.662;5.196;2022-07-24T03:48:55;101758.19;;;18.95;100.00
24788;BME280;12883;52.662;5.196;2022-07-24T03:51:20;101751.97;;;18.95;100.00
24788;BME280;12883;52.662;5.196;2022-07-24T03:53:46;101761.47;;;18.97;100.00
24788;BME280;12883;52.662;5.196;2022-07-24T03:56:12;101766.25;;;18.95;100.00
24788;BME280;12883;52.662;5.196;2022-07-24T03:58:37;101754.88;;;18.93;100.00
24788;BME280;12883;52.662;5.196;2022-07-24T04:01:03;101753.88;;;18.94;100.00
24788;BME280;12883;52.662;5.196;2022-07-24T04:03:28;101740.28;;;18.89;100.00
24788;BME280;12883;52.662;5.196;2022-07-24T04:05:54;101744.38;;;18.92;100.00
24788;BME280;12883;52.662;5.196;2022-07-24T04:08:19;101748.50;;;18.94;100.00
24788;BME280;12883;52.662;5.196;2022-07-24T04:10:45;101741.34;;;18.88;100.00
24788;BME280;12883;52.662;5.196;2022-07-24T04:13:10;101746.03;;;18.93;100.00
24788;BME280;12883;52.662;5.196;2022-07-24T04:15:36;101754.31;;;18.91;100.00
24788;BME280;12883;52.662;5.196;2022-07-24T04:18:01;101756.56;;;18.94;100.00
24788;BME280;12883;52.662;5.196;2022-07-24T04:20:27;101760.75;;;18.90;100.00
24788;BME280;12883;52.662;5.196;2022-07-24T04:22:52;101758.06;;;18.90;100.00
24788;BME280;12883;52.662;5.196;2022-07-24T04:25:18;101760.28;;;18.93;100.00
24788;BME280;12883;52.662;5.196;2022-07-24T04:27:44;101755.72;;;18.94;100.00
24788;BME280;12883;52.662;5.196;2022-07-24T04:30:10;101761.31;;;18.92;100.00
24788;BME280;12883;52.662;5.196;2022-07-24T04:32:36;101767.06;;;18.96;100.00
24788;BME280;12883;52.662;5.196;2022-07-24T04:35:04;101759.25;;;18.94;100.00
24788;BME280;12883;52.662;5.196;2022-07-24T04:37:29;101755.50;;;18.95;100.00
24788;BME280;12883;52.662;5.196;2022-07-24T04:39:55;101749.78;;;19.03;100.00
24788;BME280;12883;52.662;5.196;2022-07-24T04:42:20;101739.34;;;18.95;100.00
24788;BME280;12883;52.662;5.196;2022-07-24T04:44:45;101749.56;;;19.05;100.00
24788;BME280;12883;52.662;5.196;2022-07-24T04:47:11;101765.59;;;19.11;100.00
24788;BME280;12883;52.662;5.196;2022-07-24T04:49:36;101762.41;;;19.14;100.00
24788;BME280;12883;52.662;5.196;2022-07-24T04:52:02;101753.66;;;19.19;100.00
24788;BME280;12883;52.662;5.196;2022-07-24T04:54:27;101740.31;;;19.12;100.00
24788;BME280;12883;52.662;5.196;2022-07-24T04:56:53;101749.69;;;19.21;100.00
24788;BME280;12883;52.662;5.196;2022-07-24T04:59:18;101744.94;;;19.23;100.00
24788;BME280;12883;52.662;5.196;2022-07-24T05:01:43;101748.78;;;19.27;100.00
24788;BME280;12883;52.662;5.196;2022-07-24T05:04:09;101750.06;;;19.25;100.00
24788;BME280;12883;52.662;5.196;2022-07-24T05:06:34;101749.38;;;19.29;100.00
24788;BME280;12883;52.662;5.196;2022-07-24T05:08:59;101743.75;;;19.31;100.00
24788;BME280;12883;52.662;5.196;2022-07-24T05:11:25;101749.25;;;19.36;100.00
24788;BME280;12883;52.662;5.196;2022-07-24T05:13:50;101742.00;;;19.36;100.00
24788;BME280;12883;52.662;5.196;2022-07-24T05:16:15;101744.00;;;19.41;100.00
24788;BME280;12883;52.662;5.196;2022-07-24T05:18:41;101739.91;;;19.38;100.00
24788;BME280;12883;52.662;5.196;2022-07-24T05:21:06;101737.34;;;19.43;100.00
24788;BME280;12883;52.662;5.196;2022-07-24T05:23:32;101736.50;;;19.43;100.00
24788;BME280;12883;52.662;5.196;2022-07-24T05:25:58;101740.13;;;19.48;100.00
24788;BME280;12883;52.662;5.196;2022-07-24T05:28:23;101731.47;;;19.46;100.00
24788;BME280;12883;52.662;5.196;2022-07-24T05:30:49;101734.72;;;19.48;100.00
24788;BME280;12883;52.662;5.196;2022-07-24T05:33:14;101740.25;;;19.53;100.00
24788;BME280;12883;52.662;5.196;2022-07-24T05:35:40;101747.59;;;19.58;100.00
24788;BME280;12883;52.662;5.196;2022-07-24T05:38:05;101747.03;;;19.67;100.00
24788;BME280;12883;52.662;5.196;2022-07-24T05:40:30;101741.75;;;19.72;100.00
24788;BME280;12883;52.662;5.196;2022-07-24T05:42:56;101750.31;;;19.81;100.00
24788;BME280;12883;52.662;5.196;2022-07-24T05:45:21;101757.88;;;19.95;100.00
24788;BME280;12883;52.662;5.196;2022-07-24T05:47:47;101755.63;;;20.04;100.00
24788;BME280;12883;52.662;5.196;2022-07-24T05:50:13;101756.13;;;20.12;100.00
24788;BME280;12883;52.662;5.196;2022-07-24T05:52:40;101760.66;;;20.23;100.00
24788;BME280;12883;52.662;5.196;2022-07-24T05:55:06;101748.91;;;20.29;100.00
24788;BME280;12883;52.662;5.196;2022-07-24T05:57:32;101758.25;;;20.38;100.00
24788;BME280;12883;52.662;5.196;2022-07-24T05:59:57;101757.63;;;20.48;100.00
24788;BME280;12883;52.662;5.196;2022-07-24T06:02:23;101758.06;;;20.56;100.00
24788;BME280;12883;52.662;5.196;2022-07-24T06:04:48;101700.94;;;20.31;100.00
24788;BME280;12883;52.662;5.196;2022-07-24T06:07:13;101753.78;;;20.71;100.00
24788;BME280;12883;52.662;5.196;2022-07-24T06:09:39;101741.47;;;20.64;100.00
24788;BME280;12883;52.662;5.196;2022-07-24T06:12:05;101752.28;;;20.64;100.00
24788;BME280;12883;52.662;5.196;2022-07-24T06:14:31;101767.34;;;20.88;100.00
24788;BME280;12883;52.662;5.196;2022-07-24T06:16:57;101762.19;;;21.03;100.00
24788;BME280;12883;52.662;5.196;2022-07-24T06:19:22;101757.69;;;21.25;100.00
24788;BME280;12883;52.662;5.196;2022-07-24T06:21:48;101759.16;;;21.32;100.00
24788;BME280;12883;52.662;5.196;2022-07-24T06:24:13;101758.56;;;21.30;100.00
24788;BME280;12883;52.662;5.196;2022-07-24T06:26:39;101759.88;;;21.44;100.00
24788;BME280;12883;52.662;5.196;2022-07-24T06:29:04;101754.31;;;21.67;100.00
24788;BME280;12883;52.662;5.196;2022-07-24T06:31:30;101755.84;;;21.80;100.00
24788;BME280;12883;52.662;5.196;2022-07-24T06:33:55;101756.31;;;21.77;100.00
24788;BME280;12883;52.662;5.196;2022-07-24T06:36:21;101756.28;;;21.72;100.00
24788;BME280;12883;52.662;5.196;2022-07-24T06:38:46;101760.59;;;21.73;100.00
24788;BME280;12883;52.662;5.196;2022-07-24T06:41:11;101758.97;;;21.72;100.00
24788;BME280;12883;52.662;5.196;2022-07-24T06:43:37;101759.38;;;21.64;100.00
24788;BME280;12883;52.662;5.196;2022-07-24T06:46:02;101761.81;;;21.65;100.00
24788;BME280;12883;52.662;5.196;2022-07-24T06:48:29;101756.41;;;21.65;100.00
24788;BME280;12883;52.662;5.196;2022-07-24T06:50:55;101766.25;;;21.71;100.00
24788;BME280;12883;52.662;5.196;2022-07-24T06:53:20;101753.31;;;21.73;100.00
24788;BME280;12883;52.662;5.196;2022-07-24T06:55:45;101757.81;;;21.68;100.00
24788;BME280;12883;52.662;5.196;2022-07-24T06:58:12;101757.59;;;21.69;100.00
24788;BME280;12883;52.662;5.196;2022-07-24T07:00:37;101761.69;;;21.72;100.00
24788;BME280;12883;52.662;5.196;2022-07-24T07:03:02;101754.78;;;21.64;100.00
24788;BME280;12883;52.662;5.196;2022-07-24T07:05:28;101752.00;;;21.76;100.00
24788;BME280;12883;52.662;5.196;2022-07-24T07:07:53;101756.41;;;21.82;100.00
24788;BME280;12883;52.662;5.196;2022-07-24T07:10:19;101763.59;;;21.93;100.00
24788;BME280;12883;52.662;5.196;2022-07-24T07:12:44;101763.72;;;22.03;100.00
24788;BME280;12883;52.662;5.196;2022-07-24T07:15:10;101757.81;;;22.06;100.00
24788;BME280;12883;52.662;5.196;2022-07-24T07:17:40;101756.28;;;22.15;100.00
24788;BME280;12883;52.662;5.196;2022-07-24T07:20:06;101761.19;;;22.18;100.00
24788;BME280;12883;52.662;5.196;2022-07-24T07:22:32;101761.69;;;22.15;100.00
24788;BME280;12883;52.662;5.196;2022-07-24T07:25:01;101759.44;;;22.07;100.00
24788;BME280;12883;52.662;5.196;2022-07-24T07:27:26;101771.38;;;22.11;100.00
24788;BME280;12883;52.662;5.196;2022-07-24T07:29:52;101769.63;;;22.21;100.00
24788;BME280;12883;52.662;5.196;2022-07-24T07:32:17;101753.53;;;22.10;100.00
24788;BME280;12883;52.662;5.196;2022-07-24T07:34:43;101776.41;;;22.24;100.00
24788;BME280;12883;52.662;5.196;2022-07-24T07:37:08;101765.34;;;22.25;100.00
24788;BME280;12883;52.662;5.196;2022-07-24T07:39:33;101760.94;;;22.41;100.00
24788;BME280;12883;52.662;5.196;2022-07-24T07:41:59;101763.47;;;22.47;100.00
24788;BME280;12883;52.662;5.196;2022-07-24T07:44:24;101761.69;;;22.58;100.00
24788;BME280;12883;52.662;5.196;2022-07-24T07:46:49;101762.50;;;22.58;100.00
24788;BME280;12883;52.662;5.196;2022-07-24T07:49:15;101765.63;;;22.72;100.00
24788;BME280;12883;52.662;5.196;2022-07-24T07:51:40;101765.69;;;22.77;100.00
24788;BME280;12883;52.662;5.196;2022-07-24T07:54:05;101769.59;;;22.91;100.00
24788;BME280;12883;52.662;5.196;2022-07-24T07:56:31;101770.91;;;22.88;100.00
24788;BME280;12883;52.662;5.196;2022-07-24T07:58:57;101771.34;;;23.02;100.00
24788;BME280;12883;52.662;5.196;2022-07-24T08:01:23;101771.34;;;23.07;100.00
24788;BME280;12883;52.662;5.196;2022-07-24T08:03:48;101759.09;;;23.26;100.00
24788;BME280;12883;52.662;5.196;2022-07-24T08:06:13;101759.81;;;23.16;100.00
24788;BME280;12883;52.662;5.196;2022-07-24T08:08:39;101775.97;;;23.06;100.00
24788;BME280;12883;52.662;5.196;2022-07-24T08:11:04;101772.03;;;23.19;100.00
24788;BME280;12883;52.662;5.196;2022-07-24T08:13:30;101763.50;;;23.05;100.00
24788;BME280;12883;52.662;5.196;2022-07-24T08:15:55;101767.88;;;23.11;100.00
24788;BME280;12883;52.662;5.196;2022-07-24T08:18:21;101771.88;;;23.04;100.00
24788;BME280;12883;52.662;5.196;2022-07-24T08:20:46;101769.97;;;23.04;100.00
24788;BME280;12883;52.662;5.196;2022-07-24T08:23:12;101777.66;;;23.12;100.00
24788;BME280;12883;52.662;5.196;2022-07-24T08:25:37;101773.19;;;23.28;100.00
24788;BME280;12883;52.662;5.196;2022-07-24T08:28:03;101767.00;;;23.32;100.00
24788;BME280;12883;52.662;5.196;2022-07-24T08:30:29;101763.03;;;23.45;100.00
24788;BME280;12883;52.662;5.196;2022-07-24T08:32:54;101766.09;;;23.58;100.00
24788;BME280;12883;52.662;5.196;2022-07-24T08:35:20;101761.81;;;23.67;100.00
24788;BME280;12883;52.662;5.196;2022-07-24T08:37:46;101768.94;;;23.78;100.00
24788;BME280;12883;52.662;5.196;2022-07-24T08:40:12;101762.63;;;23.68;100.00
24788;BME280;12883;52.662;5.196;2022-07-24T08:42:38;101781.66;;;23.73;100.00
24788;BME280;12883;52.662;5.196;2022-07-24T08:45:04;101762.63;;;23.68;100.00
24788;BME280;12883;52.662;5.196;2022-07-24T08:47:30;101769.69;;;23.69;100.00
24788;BME280;12883;52.662;5.196;2022-07-24T08:49:58;101775.09;;;23.69;100.00
24788;BME280;12883;52.662;5.196;2022-07-24T08:52:25;101766.25;;;23.83;100.00
24788;BME280;12883;52.662;5.196;2022-07-24T08:54:52;101762.81;;;23.98;100.00
24788;BME280;12883;52.662;5.196;2022-07-24T08:57:18;101773.66;;;23.98;100.00
24788;BME280;12883;52.662;5.196;2022-07-24T08:59:43;101752.50;;;23.95;100.00
24788;BME280;12883;52.662;5.196;2022-07-24T09:02:09;101760.75;;;24.15;100.00
24788;BME280;12883;52.662;5.196;2022-07-24T09:04:42;101758.03;;;24.15;100.00
24788;BME280;12883;52.662;5.196;2022-07-24T09:07:17;101758.53;;;24.12;100.00
24788;BME280;12883;52.662;5.196;2022-07-24T09:09:57;101765.75;;;23.86;100.00
24788;BME280;12883;52.662;5.196;2022-07-24T09:12:23;101751.31;;;23.81;100.00
24788;BME280;12883;52.662;5.196;2022-07-24T09:14:48;101754.38;;;23.89;100.00
24788;BME280;12883;52.662;5.196;2022-07-24T09:17:18;101754.38;;;23.89;100.00
24788;BME280;12883;52.662;5.196;2022-07-24T09:19:57;101756.38;;;24.09;100.00
24788;BME280;12883;52.662;5.196;2022-07-24T09:27:40;101737.97;;;24.21;100.00
24788;BME280;12883;52.662;5.196;2022-07-24T09:30:07;101754.31;;;24.41;100.00
24788;BME280;12883;52.662;5.196;2022-07-24T09:32:33;101771.94;;;24.43;100.00
24788;BME280;12883;52.662;5.196;2022-07-24T09:34:59;101752.16;;;24.43;100.00
24788;BME280;12883;52.662;5.196;2022-07-24T09:37:26;101763.59;;;24.55;100.00
24788;BME280;12883;52.662;5.196;2022-07-24T09:39:52;101764.59;;;24.39;100.00
24788;BME280;12883;52.662;5.196;2022-07-24T09:42:18;101762.47;;;24.41;100.00
24788;BME280;12883;52.662;5.196;2022-07-24T09:44:57;101759.47;;;24.47;100.00
24788;BME280;12883;52.662;5.196;2022-07-24T09:47:23;101762.19;;;24.47;100.00
24788;BME280;12883;52.662;5.196;2022-07-24T09:49:50;101766.56;;;24.53;100.00
24788;BME280;12883;52.662;5.196;2022-07-24T09:52:18;101757.56;;;24.38;100.00
24788;BME280;12883;52.662;5.196;2022-07-24T09:54:46;101748.31;;;24.39;100.00
24788;BME280;12883;52.662;5.196;2022-07-24T09:57:28;101746.81;;;24.63;100.00
24788;BME280;12883;52.662;5.196;2022-07-24T09:59:56;101755.50;;;24.85;100.00
24788;BME280;12883;52.662;5.196;2022-07-24T10:02:26;101752.25;;;25.08;100.00
24788;BME280;12883;52.662;5.196;2022-07-24T10:04:52;101756.88;;;24.97;100.00
24788;BME280;12883;52.662;5.196;2022-07-24T10:07:20;101745.22;;;24.97;100.00
24788;BME280;12883;52.662;5.196;2022-07-24T10:09:47;101756.88;;;25.22;100.00
24788;BME280;12883;52.662;5.196;2022-07-24T10:12:18;101769.16;;;25.25;100.00
24788;BME280;12883;52.662;5.196;2022-07-24T10:14:46;101759.06;;;25.25;100.00
24788;BME280;12883;52.662;5.196;2022-07-24T10:17:12;101761.25;;;25.23;100.00
24788;BME280;12883;52.662;5.196;2022-07-24T10:19:46;101760.41;;;25.13;100.00
24788;BME280;12883;52.662;5.196;2022-07-24T10:22:14;101762.63;;;25.31;100.00
24788;BME280;12883;52.662;5.196;2022-07-24T10:24:59;101759.91;;;25.26;100.00
24788;BME280;12883;52.662;5.196;2022-07-24T10:27:32;101764.22;;;25.17;100.00
24788;BME280;12883;52.662;5.196;2022-07-24T10:29:59;101753.88;;;25.49;100.00
24788;BME280;12883;52.662;5.196;2022-07-24T10:32:26;101760.13;;;25.59;100.00
24788;BME280;12883;52.662;5.196;2022-07-24T10:35:12;101749.47;;;25.93;100.00
24788;BME280;12883;52.662;5.196;2022-07-24T10:37:45;101757.09;;;25.81;100.00
24788;BME280;12883;52.662;5.196;2022-07-24T10:45:30;101750.84;;;25.90;95.31
24788;BME280;12883;52.662;5.196;2022-07-24T10:47:56;101746.44;;;25.99;94.05
24788;BME280;12883;52.662;5.196;2022-07-24T10:50:22;101730.94;;;25.85;89.86
24788;BME280;12883;52.662;5.196;2022-07-24T10:52:48;101746.16;;;26.01;91.31
24788;BME280;12883;52.662;5.196;2022-07-24T10:55:31;101750.28;;;25.83;90.86
24788;BME280;12883;52.662;5.196;2022-07-24T10:57:58;101752.69;;;25.85;90.81
24788;BME280;12883;52.662;5.196;2022-07-24T11:00:26;101734.22;;;25.77;91.94
24788;BME280;12883;52.662;5.196;2022-07-24T11:02:59;101751.56;;;26.06;94.30
24788;BME280;12883;52.662;5.196;2022-07-24T11:05:26;101742.81;;;26.19;94.98
24788;BME280;12883;52.662;5.196;2022-07-24T11:10:46;101729.69;;;26.26;90.02
24788;BME280;12883;52.662;5.196;2022-07-24T11:18:42;101731.47;;;26.50;88.80
24788;BME280;12883;52.662;5.196;2022-07-24T11:21:38;101736.72;;;26.42;86.90
24788;BME280;12883;52.662;5.196;2022-07-24T11:27:36;101733.59;;;26.63;88.89
24788;BME280;12883;52.662;5.196;2022-07-24T11:29:54;101733.31;;;26.65;87.50
24788;BME280;12883;52.662;5.196;2022-07-24T11:32:20;101724.06;;;26.61;85.29
24788;BME280;12883;52.662;5.196;2022-07-24T11:34:49;101731.75;;;26.49;80.96
24788;BME280;12883;52.662;5.196;2022-07-24T11:37:15;101716.50;;;26.53;81.88
24788;BME280;12883;52.662;5.196;2022-07-24T11:39:42;101715.69;;;26.47;80.48
24788;BME280;12883;52.662;5.196;2022-07-24T11:42:10;101718.13;;;26.54;80.48
24788;BME280;12883;52.662;5.196;2022-07-24T11:44:54;101716.97;;;26.65;81.36
24788;BME280;12883;52.662;5.196;2022-07-24T11:47:27;101711.88;;;26.48;79.57
24788;BME280;12883;52.662;5.196;2022-07-24T11:50:05;101720.81;;;26.59;79.48
24788;BME280;12883;52.662;5.196;2022-07-24T11:52:39;101708.47;;;26.71;81.09
24788;BME280;12883;52.662;5.196;2022-07-24T11:57:36;101700.09;;;26.63;76.45
24788;BME280;12883;52.662;5.196;2022-07-24T12:00:07;101704.78;;;26.52;74.43
24788;BME280;12883;52.662;5.196;2022-07-24T12:02:35;101680.06;;;26.44;76.78
24788;BME280;12883;52.662;5.196;2022-07-24T12:05:01;101693.59;;;26.59;76.21
24788;BME280;12883;52.662;5.196;2022-07-24T12:07:26;101690.81;;;26.69;76.20
24788;BME280;12883;52.662;5.196;2022-07-24T12:09:57;101694.56;;;26.73;75.75
24788;BME280;12883;52.662;5.196;2022-07-24T12:14:54;101686.41;;;26.67;73.10
24788;BME280;12883;52.662;5.196;2022-07-24T12:17:24;101698.28;;;26.81;75.27
24788;BME280;12883;52.662;5.196;2022-07-24T12:19:51;101701.00;;;26.86;73.68
24788;BME280;12883;52.662;5.196;2022-07-24T12:22:17;101678.69;;;26.84;72.76
24788;BME280;12883;52.662;5.196;2022-07-24T12:24:43;101681.63;;;26.88;71.14
24788;BME280;12883;52.662;5.196;2022-07-24T12:27:09;101687.34;;;26.91;71.82
24788;BME280;12883;52.662;5.196;2022-07-24T12:29:42;101676.91;;;26.98;71.07
24788;BME280;12883;52.662;5.196;2022-07-24T12:32:16;101681.16;;;27.09;72.26
24788;BME280;12883;52.662;5.196;2022-07-24T12:34:43;101655.72;;;26.90;71.38
24788;BME280;12883;52.662;5.196;2022-07-24T12:37:20;101666.97;;;27.12;72.62
24788;BME280;12883;52.662;5.196;2022-07-24T12:39:51;101670.47;;;27.18;71.35
24788;BME280;12883;52.662;5.196;2022-07-24T12:42:28;101672.31;;;27.22;73.48
24788;BME280;12883;52.662;5.196;2022-07-24T12:44:53;101656.34;;;27.39;73.38
24788;BME280;12883;52.662;5.196;2022-07-24T12:47:18;101650.84;;;27.44;77.33
24788;BME280;12883;52.662;5.196;2022-07-24T12:49:45;101681.88;;;27.48;78.42
24788;BME280;12883;52.662;5.196;2022-07-24T12:52:20;101657.84;;;27.50;79.17
24788;BME280;12883;52.662;5.196;2022-07-24T12:54:48;101653.53;;;27.68;82.55
24788;BME280;12883;52.662;5.196;2022-07-24T12:57:14;101651.81;;;27.53;77.89
24788;BME280;12883;52.662;5.196;2022-07-24T13:02:25;101643.72;;;27.67;77.32
24788;BME280;12883;52.662;5.196;2022-07-24T13:04:54;101637.69;;;27.70;77.59
24788;BME280;12883;52.662;5.196;2022-07-24T13:07:23;101647.78;;;27.69;77.85